createdAt,value
2018-03-31T00:00:58.821Z,12.10
2018-03-31T00:01:58.780Z,10.80
2018-03-31T00:02:58.758Z,10.10
2018-03-31T00:03:58.734Z,12.80
2018-03-31T00:04:58.716Z,12.10
2018-03-31T00:05:58.689Z,14.60
2018-03-31T00:06:58.655Z,13.50
2018-03-31T00:07:58.637Z,13.10
2018-03-31T00:08:58.596Z,14.40
2018-03-31T00:09:58.574Z,14.70
2018-03-31T00:10:58.551Z,15.30
2018-03-31T00:11:58.517Z,14.50
2018-03-31T00:12:58.505Z,13.00
2018-03-31T00:13:58.464Z,13.00
2018-03-31T00:14:58.447Z,12.50
2018-03-31T00:15:58.413Z,14.40
2018-03-31T00:16:58.390Z,14.10
2018-03-31T00:17:58.365Z,12.90
2018-03-31T00:18:58.344Z,13.30
2018-03-31T00:19:58.316Z,12.30
2018-03-31T00:20:58.278Z,12.90
2018-03-31T00:21:58.257Z,12.80
2018-03-31T00:22:58.236Z,12.50
2018-03-31T00:23:58.203Z,16.30
2018-03-31T00:24:58.184Z,14.00
2018-03-31T00:25:58.152Z,13.10
2018-03-31T00:26:58.121Z,13.10
2018-03-31T00:27:58.098Z,13.90
2018-03-31T00:28:58.070Z,14.00
2018-03-31T00:29:58.053Z,12.70
2018-03-31T00:30:58.019Z,14.00
2018-03-31T00:31:57.992Z,14.00
2018-03-31T00:32:57.966Z,13.70
2018-03-31T00:33:57.956Z,14.20
2018-03-31T00:34:57.915Z,13.20
2018-03-31T00:35:57.882Z,13.80
2018-03-31T00:36:57.860Z,12.70
2018-03-31T00:37:57.836Z,13.50
2018-03-31T00:38:57.809Z,13.00
2018-03-31T00:39:57.783Z,12.30
2018-03-31T00:40:57.750Z,12.20
2018-03-31T00:41:57.724Z,13.10
2018-03-31T00:42:57.700Z,12.50
2018-03-31T00:43:57.672Z,12.30
2018-03-31T00:44:57.652Z,11.80
2018-03-31T00:45:57.618Z,11.50
2018-03-31T00:46:57.588Z,11.50
2018-03-31T00:47:57.565Z,13.90
2018-03-31T00:48:57.560Z,13.00
2018-03-31T00:49:57.512Z,12.80
2018-03-31T00:50:57.484Z,12.90
2018-03-31T00:51:57.463Z,13.20
2018-03-31T00:52:57.423Z,13.00
2018-03-31T00:53:57.408Z,12.60
2018-03-31T00:54:57.374Z,14.90
2018-03-31T00:55:57.350Z,13.20
2018-03-31T00:56:57.325Z,12.80
2018-03-31T00:57:57.295Z,13.00
2018-03-31T00:58:57.272Z,12.30
2018-03-31T00:59:57.241Z,12.80
2018-03-31T01:00:57.215Z,12.50
2018-03-31T01:01:57.196Z,12.20
2018-03-31T01:02:57.162Z,12.30
2018-03-31T01:03:57.137Z,13.40
2018-03-31T01:04:57.104Z,13.30
2018-03-31T01:05:57.081Z,13.80
2018-03-31T01:06:57.051Z,14.20
2018-03-31T01:07:57.029Z,14.40
2018-03-31T01:08:57.004Z,13.30
2018-03-31T01:09:56.977Z,13.30
2018-03-31T01:10:56.988Z,13.20
2018-03-31T01:11:56.923Z,12.90
2018-03-31T01:12:56.895Z,13.30
2018-03-31T01:13:56.864Z,13.10
2018-03-31T01:14:56.844Z,14.30
2018-03-31T01:15:56.818Z,14.60
2018-03-31T01:16:56.784Z,15.10
2018-03-31T01:17:56.764Z,13.90
2018-03-31T01:18:56.733Z,14.40
2018-03-31T01:19:56.708Z,14.10
2018-03-31T01:20:56.682Z,15.60
2018-03-31T01:21:56.650Z,15.80
2018-03-31T01:22:56.622Z,15.00
2018-03-31T01:23:56.601Z,14.50
2018-03-31T01:24:56.572Z,15.20
2018-03-31T01:25:56.548Z,15.50
2018-03-31T01:26:56.533Z,17.50
2018-03-31T01:27:56.489Z,16.60
2018-03-31T01:28:56.468Z,18.10
2018-03-31T01:29:56.441Z,17.20
2018-03-31T01:30:56.406Z,18.00
2018-03-31T01:31:56.487Z,18.40
2018-03-31T01:32:56.357Z,19.30
2018-03-31T01:33:56.331Z,19.60
2018-03-31T01:34:56.302Z,20.00
2018-03-31T01:35:56.271Z,21.90
2018-03-31T01:36:56.253Z,21.80
2018-03-31T01:37:56.226Z,21.80
2018-03-31T01:38:56.197Z,24.40
2018-03-31T01:39:56.169Z,22.20
2018-03-31T01:40:56.147Z,21.90
2018-03-31T01:41:56.121Z,22.50
2018-03-31T01:42:56.084Z,21.10
2018-03-31T01:43:56.061Z,23.30
2018-03-31T01:44:56.036Z,23.10
2018-03-31T01:45:56.014Z,23.00
2018-03-31T01:46:55.984Z,22.70
2018-03-31T01:47:55.952Z,21.10
2018-03-31T01:48:55.922Z,21.40
2018-03-31T01:49:55.897Z,21.70
2018-03-31T01:50:55.876Z,21.10
2018-03-31T01:51:55.851Z,22.70
2018-03-31T01:52:55.810Z,22.40
2018-03-31T01:53:55.795Z,22.00
2018-03-31T01:54:55.802Z,22.30
2018-03-31T01:55:55.740Z,21.40
2018-03-31T01:56:55.711Z,22.40
2018-03-31T01:57:55.692Z,21.40
2018-03-31T01:58:55.660Z,22.90
2018-03-31T01:59:55.630Z,24.50
2018-03-31T02:00:55.616Z,23.10
2018-03-31T02:01:55.577Z,23.20
2018-03-31T02:02:55.555Z,23.00
2018-03-31T02:03:55.520Z,24.60
2018-03-31T02:04:55.498Z,22.50
2018-03-31T02:05:55.464Z,23.50
2018-03-31T02:06:55.448Z,22.70
2018-03-31T02:07:55.420Z,23.90
2018-03-31T02:08:55.384Z,22.80
2018-03-31T02:09:55.367Z,22.10
2018-03-31T02:10:55.332Z,21.40
2018-03-31T02:11:55.313Z,21.90
2018-03-31T02:12:55.281Z,22.70
2018-03-31T02:13:55.258Z,22.80
2018-03-31T02:14:55.226Z,22.10
2018-03-31T02:15:55.204Z,22.60
2018-03-31T02:16:55.194Z,22.00
2018-03-31T02:17:55.143Z,22.40
2018-03-31T02:18:55.120Z,23.50
2018-03-31T02:19:55.104Z,23.20
2018-03-31T02:20:55.066Z,22.10
2018-03-31T02:21:55.045Z,23.20
2018-03-31T02:22:55.006Z,22.00
2018-03-31T02:23:54.978Z,23.20
2018-03-31T02:24:54.958Z,21.50
2018-03-31T02:25:54.930Z,20.10
2018-03-31T02:26:54.907Z,21.10
2018-03-31T02:27:54.881Z,20.70
2018-03-31T02:28:54.848Z,20.40
2018-03-31T02:29:54.825Z,20.70
2018-03-31T02:30:54.795Z,22.50
2018-03-31T02:31:54.770Z,20.50
2018-03-31T02:32:54.748Z,19.90
2018-03-31T02:33:54.712Z,19.10
2018-03-31T02:34:54.690Z,19.30
2018-03-31T02:35:54.661Z,18.90
2018-03-31T02:36:54.637Z,18.20
2018-03-31T02:37:54.605Z,19.00
2018-03-31T02:38:54.592Z,18.50
2018-03-31T02:39:54.561Z,20.00
2018-03-31T02:40:54.528Z,18.80
2018-03-31T02:41:54.507Z,19.00
2018-03-31T02:42:54.477Z,18.90
2018-03-31T02:43:54.443Z,19.80
2018-03-31T02:44:54.425Z,20.20
2018-03-31T02:45:54.391Z,20.40
2018-03-31T02:46:54.366Z,19.60
2018-03-31T02:47:54.340Z,20.10
2018-03-31T02:48:54.315Z,20.50
2018-03-31T02:49:54.284Z,23.20
2018-03-31T02:50:54.258Z,22.90
2018-03-31T02:51:54.228Z,24.00
2018-03-31T02:52:54.204Z,26.70
2018-03-31T02:53:54.181Z,26.50
2018-03-31T02:54:54.140Z,29.30
2018-03-31T02:55:54.127Z,28.50
2018-03-31T02:56:54.094Z,26.80
2018-03-31T02:57:54.065Z,28.50
2018-03-31T02:58:54.044Z,26.70
2018-03-31T02:59:54.011Z,27.90
2018-03-31T03:00:54.004Z,27.80
2018-03-31T03:01:53.951Z,28.00
2018-03-31T03:02:53.937Z,28.30
2018-03-31T03:03:53.906Z,26.60
2018-03-31T03:04:53.882Z,27.00
2018-03-31T03:05:53.857Z,29.50
2018-03-31T03:06:53.816Z,30.50
2018-03-31T03:07:53.788Z,30.10
2018-03-31T03:08:53.769Z,29.00
2018-03-31T03:09:53.732Z,28.90
2018-03-31T03:10:53.719Z,29.10
2018-03-31T03:11:53.694Z,31.20
2018-03-31T03:12:53.654Z,30.00
2018-03-31T03:13:53.643Z,30.20
2018-03-31T03:14:53.667Z,29.50
2018-03-31T03:15:53.588Z,28.20
2018-03-31T03:16:53.547Z,32.10
2018-03-31T03:17:53.521Z,31.30
2018-03-31T03:18:53.499Z,30.40
2018-03-31T03:19:53.472Z,33.20
2018-03-31T03:20:53.446Z,31.90
2018-03-31T03:21:53.418Z,32.40
2018-03-31T03:22:53.394Z,32.10
2018-03-31T03:23:53.367Z,33.30
2018-03-31T03:24:53.334Z,36.30
2018-03-31T03:25:53.315Z,34.80
2018-03-31T03:26:53.275Z,35.20
2018-03-31T03:27:53.256Z,32.50
2018-03-31T03:28:53.236Z,33.80
2018-03-31T03:29:53.201Z,31.60
2018-03-31T03:30:53.179Z,33.40
2018-03-31T03:31:53.147Z,32.20
2018-03-31T03:32:53.123Z,35.90
2018-03-31T03:33:53.109Z,34.20
2018-03-31T03:34:53.070Z,36.60
2018-03-31T03:35:53.036Z,35.40
2018-03-31T03:36:53.012Z,36.30
2018-03-31T03:37:52.986Z,34.80
2018-03-31T03:38:52.990Z,36.20
2018-03-31T03:39:52.937Z,40.10
2018-03-31T03:40:52.902Z,36.80
2018-03-31T03:41:52.873Z,36.40
2018-03-31T03:42:52.858Z,36.70
2018-03-31T03:43:52.821Z,34.80
2018-03-31T03:44:52.802Z,35.00
2018-03-31T03:45:52.772Z,35.40
2018-03-31T03:46:52.742Z,41.80
2018-03-31T03:47:52.724Z,36.90
2018-03-31T03:48:52.686Z,35.70
2018-03-31T03:49:52.663Z,38.30
2018-03-31T03:50:52.635Z,35.30
2018-03-31T03:51:52.601Z,36.40
2018-03-31T03:52:52.586Z,36.30
2018-03-31T03:53:52.555Z,36.00
2018-03-31T03:54:52.529Z,36.80
2018-03-31T03:55:52.496Z,36.40
2018-03-31T03:56:52.473Z,38.20
2018-03-31T03:57:52.448Z,41.70
2018-03-31T03:58:52.419Z,39.50
2018-03-31T03:59:52.394Z,37.60
2018-03-31T04:00:52.368Z,36.80
2018-03-31T04:01:52.339Z,35.40
2018-03-31T04:02:52.315Z,36.80
2018-03-31T04:03:52.276Z,39.90
2018-03-31T04:04:52.259Z,36.90
2018-03-31T04:05:52.232Z,41.10
2018-03-31T04:06:52.201Z,42.40
2018-03-31T04:07:52.179Z,44.20
2018-03-31T04:08:52.143Z,42.60
2018-03-31T04:09:52.117Z,39.10
2018-03-31T04:10:52.093Z,43.00
2018-03-31T04:11:52.062Z,43.90
2018-03-31T04:12:52.044Z,44.00
2018-03-31T04:13:52.020Z,43.30
2018-03-31T04:14:51.992Z,45.60
2018-03-31T04:15:51.971Z,45.60
2018-03-31T04:16:51.931Z,43.90
2018-03-31T04:17:51.904Z,46.30
2018-03-31T04:18:51.883Z,44.60
2018-03-31T04:19:51.850Z,46.30
2018-03-31T04:20:51.827Z,47.50
2018-03-31T04:21:51.801Z,45.00
2018-03-31T04:22:51.769Z,45.80
2018-03-31T04:23:51.737Z,49.50
2018-03-31T04:24:51.715Z,46.00
2018-03-31T04:25:51.687Z,45.60
2018-03-31T04:26:51.661Z,49.00
2018-03-31T04:27:51.636Z,46.30
2018-03-31T04:28:51.605Z,45.70
2018-03-31T04:29:51.588Z,45.10
2018-03-31T04:30:51.550Z,43.60
2018-03-31T04:31:51.520Z,43.40
2018-03-31T04:32:51.503Z,41.40
2018-03-31T04:33:51.466Z,44.50
2018-03-31T04:34:51.446Z,44.80
2018-03-31T04:35:51.425Z,45.70
2018-03-31T04:36:51.392Z,46.40
2018-03-31T04:37:51.366Z,45.30
2018-03-31T04:38:51.333Z,48.60
2018-03-31T04:39:51.316Z,45.60
2018-03-31T04:40:51.290Z,45.80
2018-03-31T04:41:51.256Z,44.10
2018-03-31T04:42:51.228Z,47.70
2018-03-31T04:43:51.200Z,44.90
2018-03-31T04:44:51.178Z,49.40
2018-03-31T04:45:51.150Z,44.90
2018-03-31T04:46:51.126Z,46.60
2018-03-31T04:47:51.097Z,47.50
2018-03-31T04:48:51.067Z,46.80
2018-03-31T04:49:51.036Z,46.00
2018-03-31T04:50:51.015Z,47.40
2018-03-31T04:51:50.980Z,45.00
2018-03-31T04:52:50.959Z,45.00
2018-03-31T04:53:50.937Z,43.30
2018-03-31T04:54:50.906Z,44.60
2018-03-31T04:55:50.878Z,42.60
2018-03-31T04:56:50.851Z,44.50
2018-03-31T04:57:50.823Z,49.80
2018-03-31T04:58:50.797Z,48.50
2018-03-31T04:59:50.777Z,47.80
2018-03-31T05:00:50.741Z,43.10
2018-03-31T05:01:50.713Z,41.40
2018-03-31T05:02:50.690Z,40.80
2018-03-31T05:03:50.657Z,43.70
2018-03-31T05:04:50.643Z,46.30
2018-03-31T05:05:50.609Z,44.40
2018-03-31T05:06:50.579Z,44.20
2018-03-31T05:07:50.551Z,46.10
2018-03-31T05:08:50.525Z,44.40
2018-03-31T05:09:50.500Z,44.90
2018-03-31T05:10:50.472Z,49.60
2018-03-31T05:11:50.444Z,48.80
2018-03-31T05:12:50.410Z,45.90
2018-03-31T05:13:50.392Z,45.00
2018-03-31T05:14:50.364Z,43.80
2018-03-31T05:15:50.335Z,46.60
2018-03-31T05:16:50.314Z,48.50
2018-03-31T05:17:50.339Z,49.20
2018-03-31T05:18:50.248Z,50.10
2018-03-31T05:19:50.229Z,51.00
2018-03-31T05:20:50.195Z,53.20
2018-03-31T05:21:50.167Z,50.30
2018-03-31T05:22:50.143Z,50.00
2018-03-31T05:23:50.118Z,47.40
2018-03-31T05:24:50.089Z,49.90
2018-03-31T05:25:50.069Z,50.10
2018-03-31T05:26:50.041Z,47.60
2018-03-31T05:27:50.008Z,49.60
2018-03-31T05:28:49.987Z,46.10
2018-03-31T05:29:49.956Z,47.60
2018-03-31T05:30:49.930Z,49.90
2018-03-31T05:31:49.907Z,51.90
2018-03-31T05:32:49.867Z,49.10
2018-03-31T05:33:49.849Z,50.50
2018-03-31T05:34:49.815Z,50.40
2018-03-31T05:35:49.785Z,51.70
2018-03-31T05:36:49.775Z,54.40
2018-03-31T05:37:49.736Z,55.20
2018-03-31T05:38:49.716Z,52.50
2018-03-31T05:39:49.675Z,51.10
2018-03-31T05:40:49.663Z,51.20
2018-03-31T05:41:49.627Z,51.00
2018-03-31T05:42:49.605Z,52.00
2018-03-31T05:43:49.571Z,51.10
2018-03-31T05:44:49.541Z,52.70
2018-03-31T05:45:49.524Z,53.80
2018-03-31T05:46:49.488Z,53.20
2018-03-31T05:47:49.467Z,54.60
2018-03-31T05:48:49.437Z,49.30
2018-03-31T05:49:49.417Z,47.00
2018-03-31T05:50:49.382Z,47.50
2018-03-31T05:51:49.360Z,46.60
2018-03-31T05:52:49.347Z,48.40
2018-03-31T05:53:49.302Z,49.50
2018-03-31T05:54:49.278Z,48.10
2018-03-31T05:55:49.245Z,50.00
2018-03-31T05:56:49.214Z,52.40
2018-03-31T05:57:49.212Z,53.10
2018-03-31T05:58:49.166Z,50.10
2018-03-31T05:59:49.225Z,46.70
2018-03-31T06:00:49.115Z,49.00
2018-03-31T06:01:49.086Z,47.30
2018-03-31T06:02:49.060Z,46.10
2018-03-31T06:03:49.032Z,46.40
2018-03-31T06:04:49.001Z,49.40
2018-03-31T06:05:48.978Z,46.90
2018-03-31T06:06:48.957Z,46.80
2018-03-31T06:07:48.918Z,46.20
2018-03-31T06:08:48.899Z,50.80
2018-03-31T06:09:48.871Z,48.10
2018-03-31T06:10:48.838Z,47.40
2018-03-31T06:11:48.815Z,47.50
2018-03-31T06:12:48.789Z,43.80
2018-03-31T06:13:48.762Z,46.50
2018-03-31T06:14:48.736Z,45.20
2018-03-31T06:15:48.702Z,46.10
2018-03-31T06:16:48.673Z,46.70
2018-03-31T06:17:48.657Z,45.80
2018-03-31T06:18:48.625Z,47.80
2018-03-31T06:19:48.603Z,49.70
2018-03-31T06:20:48.571Z,47.40
2018-03-31T06:21:48.548Z,46.60
2018-03-31T06:22:48.516Z,49.70
2018-03-31T06:23:48.490Z,48.30
2018-03-31T06:24:48.469Z,45.50
2018-03-31T06:25:48.441Z,43.90
2018-03-31T06:26:48.410Z,42.80
2018-03-31T06:27:48.390Z,44.80
2018-03-31T06:28:48.358Z,44.60
2018-03-31T06:29:48.329Z,41.40
2018-03-31T06:30:48.307Z,46.70
2018-03-31T06:31:48.272Z,46.00
2018-03-31T06:32:48.254Z,47.40
2018-03-31T06:33:48.228Z,47.70
2018-03-31T06:34:48.195Z,48.90
2018-03-31T06:35:48.170Z,46.90
2018-03-31T06:36:48.144Z,46.00
2018-03-31T06:37:48.117Z,44.70
2018-03-31T06:38:48.100Z,49.40
2018-03-31T06:39:48.070Z,50.20
2018-03-31T06:40:48.034Z,46.70
2018-03-31T06:41:48.008Z,46.00
2018-03-31T06:42:47.984Z,43.80
2018-03-31T06:43:47.962Z,45.20
2018-03-31T06:44:47.925Z,44.20
2018-03-31T06:45:47.900Z,43.20
2018-03-31T06:46:47.877Z,43.80
2018-03-31T06:47:47.843Z,40.60
2018-03-31T06:48:47.818Z,39.70
2018-03-31T06:49:47.790Z,39.30
2018-03-31T06:50:47.779Z,41.40
2018-03-31T06:51:47.747Z,40.90
2018-03-31T06:52:47.761Z,41.30
2018-03-31T06:53:47.682Z,40.00
2018-03-31T06:54:47.660Z,39.90
2018-03-31T06:55:47.644Z,39.90
2018-03-31T06:56:47.633Z,38.60
2018-03-31T06:57:47.743Z,40.60
2018-03-31T06:58:47.547Z,42.50
2018-03-31T06:59:47.521Z,39.40
2018-03-31T07:00:47.492Z,42.60
2018-03-31T07:01:47.460Z,41.60
2018-03-31T07:02:47.444Z,41.30
2018-03-31T07:03:47.417Z,42.10
2018-03-31T07:04:47.388Z,41.20
2018-03-31T07:05:47.365Z,40.50
2018-03-31T07:06:47.331Z,40.90
2018-03-31T07:07:47.309Z,40.90
2018-03-31T07:08:47.283Z,41.80
2018-03-31T07:09:47.259Z,43.60
2018-03-31T07:10:47.229Z,41.90
2018-03-31T07:11:47.203Z,42.50
2018-03-31T07:12:47.181Z,44.40
2018-03-31T07:13:47.145Z,42.00
2018-03-31T07:14:47.118Z,41.90
2018-03-31T07:15:47.096Z,45.00
2018-03-31T07:16:47.068Z,44.90
2018-03-31T07:17:47.043Z,47.40
2018-03-31T07:18:47.022Z,43.40
2018-03-31T07:19:46.980Z,41.20
2018-03-31T07:20:46.957Z,41.50
2018-03-31T07:21:46.925Z,39.90
2018-03-31T07:22:46.914Z,43.40
2018-03-31T07:23:46.888Z,43.30
2018-03-31T07:24:46.846Z,41.60
2018-03-31T07:25:46.827Z,40.10
2018-03-31T07:26:46.794Z,39.00
2018-03-31T07:27:46.777Z,37.50
2018-03-31T07:28:46.759Z,37.80
2018-03-31T07:29:46.722Z,32.80
2018-03-31T07:30:46.690Z,34.40
2018-03-31T07:31:46.663Z,33.10
2018-03-31T07:32:46.642Z,30.10
2018-03-31T07:33:46.611Z,34.00
2018-03-31T07:34:46.591Z,32.60
2018-03-31T07:35:46.560Z,38.20
2018-03-31T07:36:46.529Z,39.60
2018-03-31T07:37:46.524Z,34.30
2018-03-31T07:38:46.474Z,33.60
2018-03-31T07:39:46.446Z,34.20
2018-03-31T07:40:46.489Z,35.00
2018-03-31T07:41:46.401Z,31.00
2018-03-31T07:42:46.370Z,29.40
2018-03-31T07:43:46.346Z,28.60
2018-03-31T07:44:46.315Z,30.30
2018-03-31T07:45:46.288Z,32.50
2018-03-31T07:46:46.283Z,32.20
2018-03-31T07:47:46.243Z,32.90
2018-03-31T07:48:46.206Z,28.30
2018-03-31T07:49:46.186Z,29.60
2018-03-31T07:50:46.165Z,31.20
2018-03-31T07:51:46.127Z,29.70
2018-03-31T07:52:46.109Z,29.40
2018-03-31T07:53:46.082Z,27.70
2018-03-31T07:54:46.052Z,28.10
2018-03-31T07:55:46.108Z,32.60
2018-03-31T07:56:46.009Z,30.00
2018-03-31T07:57:45.975Z,29.60
2018-03-31T07:58:45.952Z,28.10
2018-03-31T07:59:45.923Z,29.40
2018-03-31T08:00:45.891Z,26.30
2018-03-31T08:01:45.870Z,24.70
2018-03-31T08:02:45.840Z,26.10
2018-03-31T08:03:45.811Z,24.40
2018-03-31T08:04:45.902Z,24.30
2018-03-31T08:05:45.756Z,25.20
2018-03-31T08:06:45.737Z,24.30
2018-03-31T08:07:45.709Z,24.70
2018-03-31T08:08:45.678Z,25.50
2018-03-31T08:09:45.655Z,28.70
2018-03-31T08:10:45.634Z,25.00
2018-03-31T08:11:45.603Z,24.30
2018-03-31T08:12:45.573Z,23.00
2018-03-31T08:13:45.555Z,23.60
2018-03-31T08:14:45.524Z,21.90
2018-03-31T08:15:45.496Z,20.50
2018-03-31T08:16:45.506Z,24.30
2018-03-31T08:17:45.443Z,21.80
2018-03-31T08:18:45.416Z,22.80
2018-03-31T08:19:45.390Z,21.20
2018-03-31T08:20:45.361Z,21.10
2018-03-31T08:21:45.338Z,25.00
2018-03-31T08:22:45.309Z,21.10
2018-03-31T08:23:45.287Z,19.70
2018-03-31T08:24:45.257Z,19.80
2018-03-31T08:25:45.232Z,17.20
2018-03-31T08:26:45.211Z,17.40
2018-03-31T08:27:45.185Z,19.00
2018-03-31T08:28:45.155Z,17.10
2018-03-31T08:29:45.135Z,15.60
2018-03-31T08:30:45.104Z,17.50
2018-03-31T08:31:45.076Z,16.70
2018-03-31T08:32:45.050Z,16.60
2018-03-31T08:33:45.019Z,14.80
2018-03-31T08:34:45.005Z,14.30
2018-03-31T08:35:44.970Z,14.00
2018-03-31T08:36:44.945Z,12.20
2018-03-31T08:37:44.918Z,11.40
2018-03-31T08:38:44.898Z,11.50
2018-03-31T08:39:44.864Z,10.40
2018-03-31T08:40:44.854Z,7.80
2018-03-31T08:41:44.821Z,6.90
2018-03-31T08:42:44.779Z,7.00
2018-03-31T08:43:44.758Z,7.80
2018-03-31T08:44:44.735Z,6.90
2018-03-31T08:45:44.703Z,7.80
2018-03-31T08:46:44.678Z,8.60
2018-03-31T08:47:44.648Z,8.20
2018-03-31T08:48:44.627Z,6.60
2018-03-31T08:49:44.603Z,6.40
2018-03-31T08:50:44.567Z,7.40
2018-03-31T08:51:44.546Z,7.40
2018-03-31T08:52:44.524Z,8.10
2018-03-31T08:53:44.490Z,8.10
2018-03-31T08:54:44.465Z,7.90
2018-03-31T08:55:44.438Z,7.70
2018-03-31T08:56:44.415Z,7.60
2018-03-31T08:57:44.383Z,7.60
2018-03-31T08:58:44.367Z,8.10
2018-03-31T08:59:44.330Z,7.80
2018-03-31T09:00:44.308Z,8.40
2018-03-31T09:01:44.291Z,8.00
2018-03-31T09:02:44.254Z,11.70
2018-03-31T09:03:44.238Z,8.70
2018-03-31T09:04:44.205Z,7.70
2018-03-31T09:05:44.174Z,7.20
2018-03-31T09:06:44.158Z,7.30
2018-03-31T09:07:44.123Z,7.60
2018-03-31T09:08:44.155Z,6.30
2018-03-31T09:09:44.072Z,5.80
2018-03-31T09:10:44.053Z,4.90
2018-03-31T09:11:44.019Z,5.50
2018-03-31T09:12:43.984Z,4.90
2018-03-31T09:13:43.968Z,4.90
2018-03-31T09:14:43.932Z,4.30
2018-03-31T09:15:43.920Z,5.20
2018-03-31T09:16:43.898Z,5.10
2018-03-31T09:17:43.865Z,5.80
2018-03-31T09:18:43.842Z,6.10
2018-03-31T09:19:43.804Z,4.80
2018-03-31T09:20:43.779Z,4.90
2018-03-31T09:21:43.758Z,4.30
2018-03-31T09:22:45.782Z,3.80
2018-03-31T09:23:43.700Z,3.50
2018-03-31T09:24:44.450Z,3.30
2018-03-31T09:25:43.653Z,3.10
2018-03-31T09:26:43.634Z,2.70
2018-03-31T09:27:43.592Z,2.50
2018-03-31T09:28:43.571Z,2.90
2018-03-31T09:29:43.548Z,3.40
2018-03-31T09:30:43.515Z,3.30
2018-03-31T09:31:43.492Z,3.30
2018-03-31T09:32:43.469Z,3.50
2018-03-31T09:33:43.443Z,2.70
2018-03-31T09:34:43.412Z,3.00
2018-03-31T09:35:43.389Z,3.70
2018-03-31T09:36:43.362Z,4.00
2018-03-31T09:37:43.333Z,4.20
2018-03-31T09:38:43.317Z,4.00
2018-03-31T09:39:43.281Z,3.80
2018-03-31T09:40:43.251Z,3.80
2018-03-31T09:41:43.226Z,3.70
2018-03-31T09:42:43.205Z,3.60
2018-03-31T09:43:43.181Z,3.20
2018-03-31T09:44:43.148Z,3.30
2018-03-31T09:45:43.128Z,3.20
2018-03-31T09:46:43.172Z,3.40
2018-03-31T09:47:43.071Z,3.70
2018-03-31T09:48:43.047Z,3.50
2018-03-31T09:49:43.017Z,3.70
2018-03-31T09:50:42.997Z,3.40
2018-03-31T09:51:42.963Z,3.30
2018-03-31T09:52:42.941Z,3.50
2018-03-31T09:53:42.914Z,3.40
2018-03-31T09:54:42.881Z,3.10
2018-03-31T09:55:42.862Z,3.00
2018-03-31T09:56:42.853Z,2.90
2018-03-31T09:57:42.817Z,3.10
2018-03-31T09:58:42.788Z,2.90
2018-03-31T09:59:42.762Z,3.50
2018-03-31T10:00:42.752Z,3.20
2018-03-31T10:01:42.709Z,3.40
2018-03-31T10:02:42.680Z,3.30
2018-03-31T10:03:42.654Z,3.20
2018-03-31T10:04:42.630Z,3.30
2018-03-31T10:05:42.601Z,3.30
2018-03-31T10:06:42.572Z,3.10
2018-03-31T10:07:42.551Z,3.10
2018-03-31T10:08:42.528Z,3.10
2018-03-31T10:09:42.494Z,3.30
2018-03-31T10:10:42.483Z,3.30
2018-03-31T10:11:42.449Z,3.10
2018-03-31T10:12:42.419Z,3.20
2018-03-31T10:13:42.392Z,3.50
2018-03-31T10:14:42.374Z,3.40
2018-03-31T10:15:42.335Z,3.60
2018-03-31T10:16:42.319Z,3.50
2018-03-31T10:17:42.327Z,3.50
2018-03-31T10:18:42.258Z,3.20
2018-03-31T10:19:42.238Z,3.60
2018-03-31T10:20:42.202Z,3.20
2018-03-31T10:21:42.184Z,3.50
2018-03-31T10:22:42.159Z,3.80
2018-03-31T10:23:42.125Z,3.40
2018-03-31T10:24:42.102Z,3.50
2018-03-31T10:25:42.078Z,3.30
2018-03-31T10:26:42.051Z,3.80
2018-03-31T10:27:42.026Z,3.40
2018-03-31T10:28:41.999Z,3.20
2018-03-31T10:29:41.977Z,3.50
2018-03-31T10:30:41.944Z,3.30
2018-03-31T10:31:41.927Z,3.20
2018-03-31T10:32:41.894Z,3.30
2018-03-31T10:33:41.868Z,3.50
2018-03-31T10:34:41.854Z,3.40
2018-03-31T10:35:41.818Z,3.10
2018-03-31T10:36:41.795Z,3.20
2018-03-31T10:37:41.770Z,3.70
2018-03-31T10:38:41.750Z,3.40
2018-03-31T10:39:41.709Z,3.40
2018-03-31T10:40:41.693Z,3.50
2018-03-31T10:41:41.671Z,3.60
2018-03-31T10:42:41.694Z,4.30
2018-03-31T10:43:41.613Z,4.10
2018-03-31T10:44:41.589Z,4.30
2018-03-31T10:45:41.567Z,3.90
2018-03-31T10:46:41.560Z,3.70
2018-03-31T10:47:41.522Z,4.00
2018-03-31T10:48:41.489Z,3.90
2018-03-31T10:49:41.464Z,3.60
2018-03-31T10:50:41.448Z,3.60
2018-03-31T10:51:41.411Z,3.70
2018-03-31T10:52:41.383Z,3.60
2018-03-31T10:53:41.366Z,3.60
2018-03-31T10:54:41.334Z,4.00
2018-03-31T10:55:41.310Z,3.60
2018-03-31T10:56:41.287Z,3.60
2018-03-31T10:57:41.258Z,3.30
2018-03-31T10:58:41.238Z,3.80
2018-03-31T10:59:41.201Z,3.40
2018-03-31T11:00:41.192Z,3.50
2018-03-31T11:01:41.157Z,3.40
2018-03-31T11:02:41.142Z,3.30
2018-03-31T11:03:41.110Z,3.30
2018-03-31T11:04:41.082Z,3.20
2018-03-31T11:05:41.063Z,2.70
2018-03-31T11:06:41.030Z,2.80
2018-03-31T11:07:41.006Z,2.60
2018-03-31T11:08:40.987Z,3.00
2018-03-31T11:09:40.960Z,3.00
2018-03-31T11:10:40.938Z,2.80
2018-03-31T11:11:40.913Z,2.80
2018-03-31T11:12:40.883Z,3.30
2018-03-31T11:13:40.860Z,3.10
2018-03-31T11:14:40.836Z,3.10
2018-03-31T11:15:40.818Z,3.20
2018-03-31T11:16:40.789Z,3.40
2018-03-31T11:17:40.766Z,3.20
2018-03-31T11:18:40.736Z,3.40
2018-03-31T11:19:40.711Z,3.50
2018-03-31T11:20:40.695Z,3.30
2018-03-31T11:21:40.699Z,3.60
2018-03-31T11:22:40.634Z,3.70
2018-03-31T11:23:40.620Z,3.10
2018-03-31T11:24:40.584Z,3.50
2018-03-31T11:25:40.567Z,3.00
2018-03-31T11:26:40.539Z,2.90
2018-03-31T11:27:40.512Z,2.80
2018-03-31T11:28:40.492Z,2.90
2018-03-31T11:29:40.459Z,3.00
2018-03-31T11:30:40.450Z,3.00
2018-03-31T11:31:40.426Z,2.90
2018-03-31T11:32:40.396Z,3.20
2018-03-31T11:33:40.374Z,2.60
2018-03-31T11:34:40.343Z,2.70
2018-03-31T11:35:40.323Z,2.80
2018-03-31T11:36:40.287Z,2.90
2018-03-31T11:37:40.275Z,2.50
2018-03-31T11:38:40.241Z,3.00
2018-03-31T11:39:40.216Z,3.00
2018-03-31T11:40:40.200Z,3.00
2018-03-31T11:41:40.168Z,3.00
2018-03-31T11:42:40.144Z,2.80
2018-03-31T11:43:40.131Z,2.90
2018-03-31T11:44:40.091Z,2.80
2018-03-31T11:45:40.071Z,2.70
2018-03-31T11:46:40.051Z,2.90
2018-03-31T11:47:40.032Z,2.80
2018-03-31T11:48:39.996Z,2.90
2018-03-31T11:49:39.971Z,2.60
2018-03-31T11:50:39.954Z,3.00
2018-03-31T11:51:39.924Z,2.80
2018-03-31T11:52:39.905Z,2.90
2018-03-31T11:53:39.883Z,2.90
2018-03-31T11:54:39.854Z,2.60
2018-03-31T11:55:39.828Z,2.70
2018-03-31T11:56:39.803Z,2.50
2018-03-31T11:57:39.776Z,2.50
2018-03-31T11:58:39.761Z,2.50
2018-03-31T11:59:39.736Z,2.60
2018-03-31T12:00:39.705Z,2.40
2018-03-31T12:01:39.682Z,2.40
2018-03-31T12:02:39.662Z,2.40
2018-03-31T12:03:39.631Z,2.50
2018-03-31T12:04:39.621Z,2.80
2018-03-31T12:05:39.591Z,2.70
2018-03-31T12:06:39.586Z,2.80
2018-03-31T12:07:39.541Z,2.40
2018-03-31T12:08:39.519Z,2.60
2018-03-31T12:09:39.491Z,2.60
2018-03-31T12:10:39.474Z,2.70
2018-03-31T12:11:39.450Z,2.40
2018-03-31T12:12:39.419Z,2.60
2018-03-31T12:13:39.396Z,2.30
2018-03-31T12:14:39.377Z,2.20
2018-03-31T12:15:39.347Z,2.10
2018-03-31T12:16:39.327Z,1.90
2018-03-31T12:17:39.307Z,2.50
2018-03-31T12:18:39.275Z,2.20
2018-03-31T12:19:39.263Z,2.20
2018-03-31T12:20:39.230Z,2.30
2018-03-31T12:21:39.211Z,2.10
2018-03-31T12:22:39.183Z,2.00
2018-03-31T12:23:39.160Z,2.10
2018-03-31T12:24:39.150Z,2.20
2018-03-31T12:25:39.113Z,2.30
2018-03-31T12:26:39.092Z,2.00
2018-03-31T12:27:39.111Z,2.20
2018-03-31T12:28:39.045Z,2.20
2018-03-31T12:29:39.024Z,2.20
2018-03-31T12:30:38.993Z,2.20
2018-03-31T12:31:38.981Z,2.20
2018-03-31T12:32:38.948Z,2.80
2018-03-31T12:33:38.924Z,2.40
2018-03-31T12:34:38.903Z,2.70
2018-03-31T12:35:38.876Z,2.60
2018-03-31T12:36:38.909Z,2.40
2018-03-31T12:37:38.833Z,2.70
2018-03-31T12:38:38.848Z,2.60
2018-03-31T12:39:38.844Z,2.70
2018-03-31T12:40:38.819Z,2.20
2018-03-31T12:41:38.737Z,2.20
2018-03-31T12:42:38.718Z,2.10
2018-03-31T12:43:38.688Z,2.10
2018-03-31T12:44:38.676Z,2.00
2018-03-31T12:45:38.643Z,2.60
2018-03-31T12:46:38.626Z,2.20
2018-03-31T12:47:38.604Z,2.30
2018-03-31T12:48:38.572Z,2.10
2018-03-31T12:49:38.553Z,2.40
2018-03-31T12:50:38.527Z,2.30
2018-03-31T12:51:38.520Z,2.30
2018-03-31T12:52:38.480Z,2.30
2018-03-31T12:53:38.453Z,2.30
2018-03-31T12:54:38.431Z,2.30
2018-03-31T12:55:38.416Z,2.20
2018-03-31T12:56:38.394Z,2.30
2018-03-31T12:57:38.371Z,2.10
2018-03-31T12:58:38.343Z,2.30
2018-03-31T12:59:38.325Z,2.20
2018-03-31T13:00:38.306Z,2.30
2018-03-31T13:01:38.274Z,2.20